Frenchville, ME

3:41 PM EST on December 15, 2019 (GMT -0500)
St. Agatha | | Change Station
Active Advisory: Wind Advisory Active Notice: Public Information Statement

Elev 653 ft 47.27 °N, 68.36 °W | Updated 12 seconds ago

Overcast
Overcast
28.2 °F
Feels Like 17 °F
N
13.6
Wind Variable Wind from WNW
Gusts 17.2 mph

Today
High -- | Low -- °F
--% Chance of Precip.
Yesterday
High -- | Low -- °F
Precip. -- in
Pressure 29.14 in
Visibility 10.0 miles
Clouds Mostly Cloudy 3000 ft
Overcast 3500 ft
Windchill 17 °F
Dew Point 18 °F
Humidity 66%
Rainfall 0.33 in
Snow Depth Not available.
7:13 AM 3:43 PM
Waning Gibbous, 85% visible
METAR KFVE 151953Z AUTO 26019G32KT 10SM -SN BKN030 OVC035 M03/M09 A2911 RMK AO2 PK WND 26032/1937 SNB10 SLP866 P0000 T10281089
Pressure 29.14 in
Visibility 10.0 miles
Clouds Mostly Cloudy 3000 ft
Overcast 3500 ft
Windchill 17 °F
Dew Point 18 °F
Humidity 66%
Rainfall 0.33 in
Snow Depth Not available.
7:13 AM 3:43 PM
Waning Gibbous, 85% visible
METAR KFVE 151953Z AUTO 26019G32KT 10SM -SN BKN030 OVC035 M03/M09 A2911 RMK AO2 PK WND 26032/1937 SNB10 SLP866 P0000 T10281089

Get Your Daily Forecast Email!

Thanks for signing up!

Be on the lookout for a verification email in your inbox.

You'll start receiving severe weather alerts in your inbox..

×

10-Day Weather Forecast

Almanac

Astronomy

Dec. 15, 2019 Rise Set
Actual Time
Civil Twilight
Nautical Twilight
Astronomical Twilight
Moon
Length of Visible Light
Length of Day
Tomorrow will be .
, % of the Moon is Illuminated

Today's Extremes

State Highs State Lows

Community

WunderPhotos

Category 6

Welcome to Category 6. This is the collective home for Weather Underground's featured writeups by Dr. Jeff Masters (right), Bob Henson (left), Chris Burt, and other regular contributors.

Nearby

Air Quality

  Air Quality AQ Index Pollutant
Not available.

Snow Depth

Station Depth Elevation

Earthquake Activity

City Distance Mag. Time & Date
Minimum magnitude displayed is 2.5.

Coastal Water Temperatures

Place Temperature

Stations

Nearby Weather Stations

Station Location Temp. Windchill Dew Point Humidity Wind Precip. Elev Updated Type
                   

Watches & Warnings

Wind Advisory
Issued: 2:31 PM EST Dec. 15, 2019 – National Weather Service

... Wind Advisory remains in effect until 4 am EST Monday...

* what... west winds 15 to 25 mph with gusts up to 50 mph.

* Where... portions of Central Highlands, coastal downeast, far
eastern, far northern, interior downeast, North Woods and
Penobscot valley Maine.

* When... until 4 am EST Monday.

* Impacts... gusty winds will blow around unsecured objects. Tree
limbs could be blown down and scattered to numerous power
outages may result.

Precautionary/preparedness actions...

Use extra caution when driving, especially if operating a high
profile vehicle. Secure outdoor objects.